Time;durP1;ratioP1;P1;durP2;ratioP2;P2;SDS_P1;SDS_P2;PMS_P1;PMS_P2;Temp;Humidity;BMP_temperature;BMP_pressure;BME280_temperature;BME280_humidity;BME280_pressure;Samples;Min_cycle;Max_cycle;Signal;HPM_P1;HPM_P2
2022/01/18 00:01:09;;;;;;;60.33;7.32;;;6.70;99.90;;;;;;5094668;23;20045;-74
2022/01/18 00:03:35;;;;;;;61.83;6.88;;;6.70;99.90;;;;;;5074876;28;20021;-74
2022/01/18 00:06:00;;;;;;;51.22;5.70;;;6.70;99.90;;;;;;5074954;28;20375;-73
2022/01/18 00:08:26;;;;;;;45.67;5.70;;;6.70;99.90;;;;;;5074722;28;20055;-75
2022/01/18 00:10:51;;;;;;;59.47;7.78;;;6.70;99.90;;;;;;5075242;28;20074;-75
2022/01/18 00:18:35;;;;;;;51.75;6.15;;;6.70;99.90;;;;;;5074933;28;20071;-74
2022/01/18 00:23:28;;;;;;;52.28;5.65;;;6.70;99.90;;;;;;5076486;28;20051;-74
2022/01/18 00:25:56;;;;;;;50.40;5.00;;;6.80;99.90;;;;;;5076904;28;20021;-73
2022/01/18 00:28:23;;;;;;;45.58;5.53;;;6.80;99.90;;;;;;5076940;28;20027;-74
2022/01/18 00:34:01;;;;;;;36.33;4.22;;;6.70;99.90;;;;;;5075316;28;20047;-75
2022/01/18 00:36:36;;;;;;;37.72;5.03;;;6.80;99.90;;;;;;5074355;28;20568;-74
2022/01/18 00:39:05;;;;;;;42.28;5.63;;;6.80;99.90;;;;;;5074457;28;20078;-75
2022/01/18 00:41:31;;;;;;;45.42;5.50;;;6.80;99.90;;;;;;5074703;28;20033;-74
2022/01/18 00:43:56;;;;;;;31.08;3.92;;;6.80;99.90;;;;;;5074626;28;20027;-75
2022/01/18 00:46:23;;;;;;;29.98;3.95;;;6.80;99.90;;;;;;5073933;28;20021;-74
2022/01/18 00:48:52;;;;;;;43.75;4.65;;;6.90;99.90;;;;;;5056427;28;20054;-74
2022/01/18 00:51:18;;;;;;;27.85;3.58;;;6.90;99.90;;;;;;5074008;28;20111;-75
2022/01/18 00:53:46;;;;;;;32.88;4.25;;;6.90;99.90;;;;;;5074080;28;20021;-73
2022/01/18 00:58:39;;;;;;;39.42;4.75;;;7.00;99.90;;;;;;5074002;28;20469;-74
2022/01/18 01:01:05;;;;;;;28.73;4.10;;;6.90;99.90;;;;;;5073684;28;20024;-74
2022/01/18 01:03:31;;;;;;;28.58;3.33;;;6.90;99.90;;;;;;5075221;28;20491;-72
2022/01/18 01:05:57;;;;;;;45.28;5.05;;;6.90;99.90;;;;;;5074723;28;20504;-73
2022/01/18 01:08:23;;;;;;;34.72;4.13;;;7.00;99.90;;;;;;5056948;28;20055;-75
2022/01/18 01:10:48;;;;;;;37.75;3.88;;;7.00;99.90;;;;;;5074537;28;20162;-75
2022/01/18 01:13:16;;;;;;;25.25;3.60;;;6.90;99.90;;;;;;5056639;28;20035;-75
2022/01/18 01:18:34;;;;;;;37.03;4.38;;;7.00;99.90;;;;;;5076013;28;20035;-75
2022/01/18 01:32:18;;;;;;;26.13;3.50;;;7.10;99.90;;;;;;5073207;28;20102;-73
2022/01/18 01:35:04;;;;;;;30.92;3.33;;;7.10;99.90;;;;;;5073211;28;20024;-74
2022/01/18 01:45:23;;;;;;;27.73;3.42;;;7.10;99.90;;;;;;5072523;28;20070;-73
2022/01/18 01:47:51;;;;;;;25.05;3.55;;;7.00;99.90;;;;;;5073339;28;20040;-74
2022/01/18 01:50:20;;;;;;;24.63;3.20;;;7.10;99.90;;;;;;5075716;28;20012;-74
2022/01/18 01:52:47;;;;;;;28.70;2.97;;;7.10;99.90;;;;;;5079568;28;20025;-74
2022/01/18 01:55:14;;;;;;;26.33;3.30;;;7.10;99.90;;;;;;5076789;28;20051;-73
2022/01/18 01:57:39;;;;;;;29.23;3.38;;;7.10;99.90;;;;;;5072491;28;20468;-74
2022/01/18 02:00:08;;;;;;;26.25;3.13;;;7.20;99.90;;;;;;5072398;28;20051;-73
2022/01/18 02:02:34;;;;;;;21.77;2.65;;;7.20;99.90;;;;;;5073298;28;20033;-74
2022/01/18 02:05:00;;;;;;;23.50;3.30;;;7.30;99.90;;;;;;5078772;28;20499;-74
2022/01/18 02:07:25;;;;;;;21.60;3.08;;;7.20;99.90;;;;;;5078883;28;20385;-73
2022/01/18 02:09:51;;;;;;;18.48;3.00;;;7.10;99.90;;;;;;5076294;28;20492;-73
2022/01/18 02:12:20;;;;;;;20.27;3.03;;;7.20;99.90;;;;;;5072532;28;20025;-74
2022/01/18 02:14:50;;;;;;;22.98;2.97;;;7.20;99.90;;;;;;5073262;28;20507;-74
2022/01/18 02:22:47;;;;;;;33.78;3.42;;;7.10;99.90;;;;;;5081974;28;20078;-73
2022/01/18 02:25:13;;;;;;;23.55;2.90;;;7.10;99.90;;;;;;5082454;28;20021;-73
2022/01/18 02:27:38;;;;;;;27.98;3.05;;;7.10;99.90;;;;;;5066926;28;20039;-73
2022/01/18 02:30:04;;;;;;;14.60;2.45;;;7.10;99.90;;;;;;5088732;28;20048;-74
2022/01/18 02:32:30;;;;;;;20.52;2.25;;;7.10;99.90;;;;;;5088254;28;20113;-73
2022/01/18 02:34:56;;;;;;;17.13;2.08;;;7.10;99.90;;;;;;5076574;28;20111;-73
2022/01/18 02:37:21;;;;;;;18.90;2.47;;;7.10;99.90;;;;;;5071765;28;20021;-73
2022/01/18 02:39:47;;;;;;;19.20;3.15;;;7.20;99.90;;;;;;5072002;28;20078;-74
2022/01/18 02:42:16;;;;;;;16.08;2.10;;;7.20;99.90;;;;;;5072224;28;20482;-74
2022/01/18 02:44:42;;;;;;;20.83;2.85;;;7.20;99.90;;;;;;5072805;28;20388;-74
2022/01/18 02:47:08;;;;;;;20.08;2.58;;;7.20;99.90;;;;;;5072969;28;20096;-73
2022/01/18 02:49:34;;;;;;;19.23;2.33;;;7.20;99.90;;;;;;5075461;28;20078;-77
2022/01/18 02:52:01;;;;;;;18.30;2.25;;;7.20;99.90;;;;;;5069848;28;20028;-78
2022/01/18 02:54:26;;;;;;;23.52;2.65;;;7.20;99.90;;;;;;5089632;28;20033;-79
2022/01/18 02:56:55;;;;;;;23.30;2.60;;;7.20;99.90;;;;;;5088810;28;20028;-79
2022/01/18 02:59:43;;;;;;;16.17;2.30;;;7.30;99.90;;;;;;5071445;28;20076;-79
2022/01/18 03:05:03;;;;;;;21.45;2.38;;;7.30;99.90;;;;;;5092624;28;20055;-79
2022/01/18 03:07:28;;;;;;;18.02;2.42;;;7.30;99.90;;;;;;5096094;28;20032;-78
2022/01/18 03:09:54;;;;;;;23.45;3.13;;;7.40;99.90;;;;;;5096777;28;20063;-78
2022/01/18 03:12:20;;;;;;;15.45;1.90;;;7.30;99.90;;;;;;5097029;28;20020;-79
2022/01/18 03:14:45;;;;;;;18.50;2.00;;;7.30;99.90;;;;;;5096842;28;20024;-77
2022/01/18 03:17:11;;;;;;;22.77;2.25;;;7.30;99.90;;;;;;5096389;28;20047;-79
2022/01/18 03:19:36;;;;;;;22.20;2.97;;;7.30;99.90;;;;;;5083352;28;20269;-79
2022/01/18 03:22:03;;;;;;;23.35;2.50;;;7.30;99.90;;;;;;5086294;28;20060;-79
2022/01/18 03:29:39;;;;;;;16.17;2.30;;;7.30;99.90;;;;;;5074255;28;20254;-73
2022/01/18 03:32:05;;;;;;;10.85;1.85;;;7.40;99.90;;;;;;5076511;28;20514;-73
2022/01/18 03:34:30;;;;;;;15.60;2.35;;;7.30;99.90;;;;;;5078556;28;20114;-77
2022/01/18 03:36:56;;;;;;;13.80;2.45;;;7.30;99.90;;;;;;5079494;28;20059;-74
2022/01/18 03:39:22;;;;;;;16.85;2.10;;;7.30;99.90;;;;;;5081543;28;20024;-74
2022/01/18 03:41:54;;;;;;;16.73;2.00;;;7.30;99.90;;;;;;5075330;28;20036;-74
2022/01/18 03:44:22;;;;;;;20.27;2.42;;;7.30;99.90;;;;;;5075265;28;20477;-73
2022/01/18 03:46:48;;;;;;;15.13;2.03;;;7.30;99.90;;;;;;5074769;28;20021;-73
2022/01/18 03:49:14;;;;;;;13.15;2.22;;;7.30;99.90;;;;;;5075404;28;20388;-76
2022/01/18 03:51:39;;;;;;;10.68;2.05;;;7.30;99.90;;;;;;5074759;28;20024;-75
2022/01/18 03:54:05;;;;;;;15.25;2.80;;;7.30;99.90;;;;;;5074632;28;20496;-75
2022/01/18 03:56:31;;;;;;;15.65;2.60;;;7.30;99.90;;;;;;5056641;28;20032;-74
2022/01/18 03:58:56;;;;;;;14.45;2.33;;;7.30;99.90;;;;;;5074550;28;20032;-74
2022/01/18 04:01:22;;;;;;;19.45;2.38;;;7.30;99.90;;;;;;5075039;28;20049;-74
2022/01/18 04:03:48;;;;;;;17.55;1.98;;;7.40;99.90;;;;;;5057480;28;20465;-75
2022/01/18 04:06:14;;;;;;;20.60;2.83;;;7.30;99.90;;;;;;5075085;28;20025;-74
2022/01/18 04:08:39;;;;;;;17.15;2.08;;;7.40;99.90;;;;;;5064333;28;20055;-74
2022/01/18 04:11:05;;;;;;;12.88;1.95;;;7.40;99.90;;;;;;5056899;28;20021;-74
2022/01/18 04:13:31;;;;;;;16.52;2.17;;;7.40;99.90;;;;;;5074732;28;20035;-74
2022/01/18 04:15:56;;;;;;;14.05;2.25;;;7.40;99.90;;;;;;5074719;28;20485;-73
2022/01/18 04:18:47;;;;;;;9.05;2.00;;;7.40;99.90;;;;;;5075924;28;20025;-75
2022/01/18 04:29:09;;;;;;;16.88;2.60;;;7.50;99.90;;;;;;5081107;28;20324;-76
2022/01/18 04:31:35;;;;;;;19.65;2.72;;;7.50;99.90;;;;;;5079756;28;20020;-74
2022/01/18 04:34:01;;;;;;;12.70;1.98;;;7.40;99.90;;;;;;5079096;28;20305;-74
2022/01/18 04:36:28;;;;;;;16.58;2.22;;;7.50;99.90;;;;;;5060511;28;20020;-75
2022/01/18 04:38:54;;;;;;;13.20;2.28;;;7.60;99.90;;;;;;5080276;28;20111;-76
2022/01/18 04:41:26;;;;;;;19.05;2.72;;;7.50;99.90;;;;;;5078412;28;20027;-72
2022/01/18 04:49:11;;;;;;;12.55;1.92;;;7.60;99.90;;;;;;5073473;28;20062;-75
2022/01/18 04:51:37;;;;;;;14.50;2.53;;;7.60;99.90;;;;;;5074069;28;20390;-75
2022/01/18 04:54:05;;;;;;;13.48;2.53;;;7.60;99.90;;;;;;5074021;28;20108;-74
2022/01/18 04:59:01;;;;;;;15.40;2.38;;;7.60;99.90;;;;;;5073959;28;20118;-76
2022/01/18 05:01:27;;;;;;;18.50;3.08;;;7.60;99.90;;;;;;5073917;28;20035;-75
2022/01/18 05:03:53;;;;;;;16.50;2.47;;;7.70;99.90;;;;;;5073975;28;20409;-74
2022/01/18 05:06:19;;;;;;;17.05;2.92;;;7.60;99.90;;;;;;5073663;28;20035;-76
2022/01/18 05:08:46;;;;;;;23.15;2.85;;;7.70;99.90;;;;;;5056298;28;20085;-75
2022/01/18 05:11:15;;;;;;;21.42;2.70;;;7.70;99.90;;;;;;5076520;28;20044;-75
2022/01/18 05:22:58;;;;;;;15.25;2.45;;;7.60;99.90;;;;;;5073411;28;20036;-75
2022/01/18 05:24:12;;;;;;;22.02;2.97;;;7.50;99.90;;;;;;5071788;28;20051;-74
2022/01/18 05:26:38;;;;;;;22.00;2.83;;;7.50;99.90;;;;;;5073089;28;20025;-76
2022/01/18 05:29:04;;;;;;;18.33;2.25;;;7.50;99.90;;;;;;5074086;28;20021;-74
2022/01/18 05:31:30;;;;;;;25.40;3.30;;;7.50;99.90;;;;;;5073914;28;20094;-75
2022/01/18 05:33:55;;;;;;;20.60;2.95;;;7.50;99.90;;;;;;5073474;28;20021;-75
2022/01/18 05:36:21;;;;;;;17.83;2.45;;;7.40;99.90;;;;;;5073558;28;20044;-75
2022/01/18 05:38:47;;;;;;;26.30;4.35;;;7.40;99.90;;;;;;5073405;28;20048;-74
2022/01/18 05:41:13;;;;;;;22.65;3.90;;;7.40;99.90;;;;;;5073508;28;20074;-74
2022/01/18 05:43:39;;;;;;;22.77;3.50;;;7.40;99.90;;;;;;5055498;28;20025;-74
2022/01/18 05:46:05;;;;;;;19.75;3.03;;;7.40;99.90;;;;;;5056254;28;20027;-76
2022/01/18 05:48:30;;;;;;;26.25;3.83;;;7.40;99.90;;;;;;5076006;28;20021;-74
2022/01/18 05:50:59;;;;;;;33.45;4.50;;;7.50;99.90;;;;;;5080449;28;20024;-74
2022/01/18 05:53:30;;;;;;;33.10;5.97;;;7.50;99.90;;;;;;5080796;28;20055;-74
2022/01/18 05:55:59;;;;;;;25.88;4.57;;;7.50;99.90;;;;;;5082936;28;20032;-75
2022/01/18 05:58:25;;;;;;;31.52;5.15;;;7.40;99.90;;;;;;5086833;28;20032;-77
2022/01/18 06:00:52;;;;;;;33.75;5.18;;;7.40;99.90;;;;;;5088351;28;20123;-76
2022/01/18 06:03:26;;;;;;;50.22;6.05;;;7.40;99.90;;;;;;5068771;28;20048;-75
2022/01/18 06:08:38;;;;;;;42.47;6.50;;;7.50;99.90;;;;;;5082762;28;20039;-76
2022/01/18 06:11:03;;;;;;;34.90;6.47;;;7.40;99.90;;;;;;5079528;28;20477;-76
2022/01/18 06:13:29;;;;;;;28.30;5.95;;;7.40;99.90;;;;;;5058804;28;20455;-73
2022/01/18 06:15:55;;;;;;;38.78;6.32;;;7.40;99.90;;;;;;5077111;28;20029;-76
2022/01/18 06:18:22;;;;;;;26.38;5.50;;;7.40;99.90;;;;;;5059965;28;20054;-75
2022/01/18 06:20:47;;;;;;;25.40;5.28;;;7.40;99.90;;;;;;5074916;28;20023;-76
2022/01/18 06:23:14;;;;;;;36.05;5.93;;;7.40;99.90;;;;;;5056411;28;20021;-75
2022/01/18 06:25:40;;;;;;;32.63;6.47;;;7.50;99.90;;;;;;5072593;28;20031;-75
2022/01/18 06:28:06;;;;;;;31.13;6.75;;;7.50;99.90;;;;;;5054928;28;20020;-75
2022/01/18 06:30:32;;;;;;;41.33;6.85;;;7.60;99.90;;;;;;5073052;28;20103;-77
2022/01/18 06:32:57;;;;;;;35.35;7.43;;;7.60;99.90;;;;;;5075422;28;20386;-76
2022/01/18 06:35:23;;;;;;;41.15;7.38;;;7.60;99.90;;;;;;5058818;28;20032;-76
2022/01/18 06:37:49;;;;;;;49.97;7.05;;;7.70;99.90;;;;;;5079772;28;20338;-77
2022/01/18 06:40:14;;;;;;;39.15;8.35;;;7.70;99.90;;;;;;5062130;28;20021;-74
2022/01/18 06:42:40;;;;;;;48.58;6.72;;;7.70;99.90;;;;;;5076760;28;20469;-77
2022/01/18 06:45:07;;;;;;;47.42;7.10;;;7.70;99.90;;;;;;5073239;28;20032;-77
2022/01/18 06:47:33;;;;;;;48.15;7.40;;;7.70;99.90;;;;;;5060088;28;20474;-75
2022/01/18 06:49:58;;;;;;;48.03;7.35;;;7.70;99.90;;;;;;5078004;28;20044;-77
2022/01/18 06:52:24;;;;;;;49.67;6.45;;;7.70;99.90;;;;;;5064963;28;20029;-75
2022/01/18 06:54:49;;;;;;;48.83;9.00;;;7.70;99.90;;;;;;5080954;28;20107;-76
2022/01/18 06:57:15;;;;;;;55.75;8.07;;;7.70;99.90;;;;;;5061051;28;20016;-76
2022/01/18 06:59:41;;;;;;;38.92;6.13;;;7.80;99.90;;;;;;5078614;28;20058;-77
2022/01/18 07:02:06;;;;;;;43.38;6.07;;;7.80;99.90;;;;;;5059804;28;20047;-75
2022/01/18 07:04:32;;;;;;;37.67;7.18;;;7.80;99.90;;;;;;5078634;28;20024;-77
2022/01/18 07:06:58;;;;;;;38.00;6.18;;;7.80;99.90;;;;;;5077722;28;20654;-76
2022/01/18 07:09:24;;;;;;;42.03;6.65;;;7.80;99.90;;;;;;5076213;28;20103;-75
2022/01/18 07:11:54;;;;;;;53.00;6.45;;;7.80;99.90;;;;;;5077828;28;20024;-75
2022/01/18 07:14:20;;;;;;;61.13;8.43;;;7.90;99.90;;;;;;5082751;28;20473;-74
2022/01/18 07:16:45;;;;;;;53.50;8.43;;;7.80;99.90;;;;;;5084594;28;20039;-74
2022/01/18 07:19:11;;;;;;;44.38;7.10;;;7.80;99.90;;;;;;5087291;28;20043;-74
2022/01/18 07:21:37;;;;;;;49.42;6.88;;;7.90;99.90;;;;;;5069999;28;20035;-74
2022/01/18 07:24:15;;;;;;;38.70;5.82;;;7.90;99.90;;;;;;5088850;28;20028;-75
2022/01/18 07:26:40;;;;;;;47.95;7.28;;;7.90;99.90;;;;;;5087240;28;20021;-75
2022/01/18 07:29:06;;;;;;;69.63;7.93;;;7.90;99.90;;;;;;5067460;28;20306;-75
2022/01/18 07:31:31;;;;;;;53.38;7.45;;;7.90;99.90;;;;;;5060458;28;20534;-76
2022/01/18 07:33:57;;;;;;;50.10;7.40;;;7.90;99.90;;;;;;5077103;28;20389;-73
2022/01/18 07:36:23;;;;;;;52.83;6.43;;;7.90;99.90;;;;;;5078286;28;20059;-76
2022/01/18 07:38:48;;;;;;;51.08;7.70;;;7.90;99.90;;;;;;5078903;28;20029;-75
2022/01/18 07:41:14;;;;;;;48.95;6.78;;;7.90;99.90;;;;;;5079952;28;20056;-73
2022/01/18 07:43:40;;;;;;;55.45;7.20;;;7.90;99.90;;;;;;5077272;28;20017;-75
2022/01/18 07:46:06;;;;;;;48.42;6.75;;;7.90;99.90;;;;;;5078273;28;20114;-74
2022/01/18 07:48:32;;;;;;;51.28;8.10;;;8.00;99.90;;;;;;5075702;28;20031;-74
2022/01/18 07:50:58;;;;;;;63.22;8.02;;;7.90;99.90;;;;;;5076229;28;20036;-76
2022/01/18 07:53:24;;;;;;;54.20;7.07;;;7.90;99.90;;;;;;5076607;28;20470;-73
2022/01/18 07:55:50;;;;;;;43.85;7.20;;;7.80;99.90;;;;;;5057679;28;20020;-73
2022/01/18 07:58:17;;;;;;;45.65;6.72;;;7.90;99.90;;;;;;5075977;28;20025;-75
2022/01/18 08:00:42;;;;;;;44.78;6.72;;;8.00;99.90;;;;;;5058209;28;20025;-73
2022/01/18 08:03:09;;;;;;;62.40;7.97;;;8.20;99.90;;;;;;5058201;28;20115;-74
2022/01/18 08:05:34;;;;;;;54.00;6.50;;;8.30;99.90;;;;;;5076442;28;20012;-75
2022/01/18 08:08:02;;;;;;;56.90;8.07;;;8.50;99.90;;;;;;5079760;28;20020;-73
2022/01/18 08:10:30;;;;;;;59.42;7.80;;;8.50;99.90;;;;;;5076239;28;20016;-75
2022/01/18 08:13:02;;;;;;;70.93;8.48;;;8.50;99.90;;;;;;5075230;28;20029;-74
2022/01/18 08:15:38;;;;;;;55.05;7.75;;;8.60;99.90;;;;;;5074433;28;20017;-74
2022/01/18 08:18:12;;;;;;;192.82;36.10;;;8.70;99.90;;;;;;5056689;28;20070;-74
2022/01/18 08:20:38;;;;;;;67.95;10.20;;;8.80;99.90;;;;;;5075043;28;20023;-75
2022/01/18 08:23:04;;;;;;;82.85;13.13;;;8.80;99.90;;;;;;5074645;28;20029;-74
2022/01/18 08:25:30;;;;;;;62.72;8.13;;;8.80;99.90;;;;;;5073757;28;20109;-74
2022/01/18 08:27:56;;;;;;;60.95;7.78;;;8.80;99.90;;;;;;5075192;28;20019;-74
2022/01/18 08:30:22;;;;;;;64.82;7.63;;;8.60;99.90;;;;;;5075270;28;20040;-75
2022/01/18 08:32:49;;;;;;;53.72;8.43;;;8.60;99.90;;;;;;5059413;28;20107;-74
2022/01/18 08:35:15;;;;;;;64.90;8.63;;;8.50;99.90;;;;;;5075341;28;20067;-76
2022/01/18 08:37:41;;;;;;;67.07;8.25;;;8.50;99.90;;;;;;5077271;28;20024;-79
2022/01/18 08:40:09;;;;;;;59.38;8.32;;;8.70;99.90;;;;;;5074315;28;20044;-72
2022/01/18 08:42:35;;;;;;;63.65;8.57;;;8.80;99.90;;;;;;5074136;28;20477;-73
2022/01/18 08:45:01;;;;;;;55.88;7.78;;;8.90;99.90;;;;;;5074548;28;20111;-75
2022/01/18 08:47:27;;;;;;;64.30;7.97;;;8.90;99.90;;;;;;5078407;28;20025;-73
2022/01/18 08:49:53;;;;;;;65.32;8.13;;;8.90;99.90;;;;;;5075087;28;20190;-72
2022/01/18 08:52:20;;;;;;;76.88;8.57;;;9.00;99.90;;;;;;5074662;28;20028;-75
2022/01/18 08:54:46;;;;;;;64.20;7.60;;;9.00;99.90;;;;;;5078519;28;20080;-75
2022/01/18 08:57:12;;;;;;;52.97;6.32;;;9.10;99.90;;;;;;5081265;28;20041;-75
2022/01/18 08:59:42;;;;;;;58.55;7.93;;;9.10;99.90;;;;;;5081445;28;20091;-74
2022/01/18 09:02:09;;;;;;;47.42;6.80;;;9.20;99.90;;;;;;5074607;28;20023;-74
2022/01/18 09:04:36;;;;;;;46.40;6.57;;;9.10;99.90;;;;;;5075109;28;20089;-72
2022/01/18 09:07:08;;;;;;;48.00;6.93;;;9.00;99.90;;;;;;5074132;28;20485;-76
2022/01/18 09:09:35;;;;;;;52.47;6.97;;;9.00;99.90;;;;;;5076119;28;20028;-78
2022/01/18 09:12:01;;;;;;;56.28;6.20;;;8.90;99.90;;;;;;5075470;28;20044;-76
2022/01/18 09:14:27;;;;;;;54.90;6.55;;;8.90;99.90;;;;;;5074990;28;20103;-77
2022/01/18 09:16:52;;;;;;;54.40;6.88;;;8.80;99.90;;;;;;5056838;28;20025;-75
2022/01/18 09:19:18;;;;;;;56.50;6.40;;;8.70;99.90;;;;;;5057514;28;20484;-72
2022/01/18 09:21:47;;;;;;;59.17;7.13;;;8.70;99.90;;;;;;5095038;28;20027;-74
2022/01/18 09:24:13;;;;;;;48.08;6.18;;;8.70;99.90;;;;;;5077645;28;20021;-75
2022/01/18 09:26:38;;;;;;;48.13;6.30;;;8.70;99.90;;;;;;5074522;28;20035;-75
2022/01/18 09:29:06;;;;;;;48.40;5.95;;;8.70;99.90;;;;;;5074551;28;20389;-75
2022/01/18 09:31:35;;;;;;;52.17;6.75;;;8.70;99.90;;;;;;5074618;28;20036;-75
2022/01/18 09:34:00;;;;;;;44.67;5.43;;;8.70;99.90;;;;;;5075309;28;20059;-74
2022/01/18 09:36:26;;;;;;;56.28;7.43;;;8.60;99.90;;;;;;5072989;28;20416;-75
2022/01/18 09:38:52;;;;;;;52.38;7.80;;;8.60;99.90;;;;;;5073861;28;20131;-75
2022/01/18 09:41:20;;;;;;;48.38;5.95;;;8.60;99.90;;;;;;5074258;28;20500;-78
2022/01/18 09:43:45;;;;;;;40.70;5.88;;;8.60;99.90;;;;;;5060050;28;20104;-75
2022/01/18 09:46:11;;;;;;;50.90;6.35;;;8.60;99.90;;;;;;5075215;28;20040;-75
2022/01/18 09:48:37;;;;;;;50.63;6.35;;;8.70;99.90;;;;;;5074153;28;20496;-76
2022/01/18 09:51:03;;;;;;;48.90;7.65;;;8.60;99.90;;;;;;5062559;28;20025;-75
2022/01/18 09:53:29;;;;;;;58.42;6.82;;;8.60;99.90;;;;;;5073453;28;20032;-73
2022/01/18 09:55:54;;;;;;;41.55;5.20;;;8.60;99.90;;;;;;5074056;28;20036;-74
2022/01/18 09:58:20;;;;;;;49.00;6.00;;;8.60;99.90;;;;;;5076364;28;20087;-75
2022/01/18 10:00:46;;;;;;;46.38;5.78;;;8.60;99.90;;;;;;5075015;28;20513;-74
2022/01/18 10:03:26;;;;;;;54.30;6.47;;;8.70;99.90;;;;;;5073562;28;20067;-75
2022/01/18 10:05:52;;;;;;;33.55;4.93;;;8.70;99.90;;;;;;5074860;28;20052;-75
2022/01/18 10:08:18;;;;;;;49.20;5.90;;;8.70;99.90;;;;;;5075662;28;20501;-74
2022/01/18 10:10:49;;;;;;;42.67;5.97;;;8.70;99.90;;;;;;5058744;28;20063;-74
2022/01/18 10:13:20;;;;;;;42.70;5.68;;;8.70;99.90;;;;;;5075864;28;20028;-74
2022/01/18 10:16:03;;;;;;;54.75;6.38;;;8.70;99.90;;;;;;5074982;28;20020;-74
2022/01/18 10:19:03;;;;;;;58.95;7.03;;;8.80;99.90;;;;;;5072501;28;20130;-74
2022/01/18 10:21:44;;;;;;;49.17;7.10;;;8.80;99.90;;;;;;5057917;28;20069;-73
2022/01/18 10:24:16;;;;;;;45.60;7.63;;;8.80;99.90;;;;;;5072721;28;20091;-74
2022/01/18 10:26:43;;;;;;;50.80;9.18;;;8.80;99.90;;;;;;5071729;28;20421;-74
2022/01/18 10:29:10;;;;;;;50.25;5.78;;;8.90;99.90;;;;;;5071905;28;20031;-75
2022/01/18 10:31:43;;;;;;;40.83;5.78;;;9.00;99.90;;;;;;5071974;28;20024;-74
2022/01/18 10:34:20;;;;;;;42.22;5.55;;;9.10;99.90;;;;;;5072211;28;20040;-74
2022/01/18 10:37:14;;;;;;;39.63;5.15;;;9.10;99.90;;;;;;5071936;28;20049;-75
2022/01/18 10:39:48;;;;;;;35.55;5.60;;;9.10;99.90;;;;;;5071018;28;20028;-75
2022/01/18 10:42:32;;;;;;;37.85;6.75;;;9.00;99.90;;;;;;5071989;28;20017;-74
2022/01/18 10:45:05;;;;;;;33.30;5.07;;;9.00;99.90;;;;;;5072248;28;20036;-74
2022/01/18 10:47:32;;;;;;;46.97;5.80;;;9.00;99.90;;;;;;5070862;28;20017;-74
2022/01/18 10:50:11;;;;;;;37.78;4.85;;;9.00;99.90;;;;;;5071764;28;20135;-75
2022/01/18 10:52:37;;;;;;;40.28;5.82;;;9.00;99.90;;;;;;5072637;28;20103;-72
2022/01/18 10:55:03;;;;;;;31.92;5.03;;;9.00;99.90;;;;;;5073494;28;20052;-75
2022/01/18 10:57:33;;;;;;;36.97;6.22;;;9.10;99.90;;;;;;5055567;28;20024;-75
2022/01/18 11:00:02;;;;;;;35.72;7.45;;;9.10;99.90;;;;;;5057266;28;20033;-75
2022/01/18 11:02:33;;;;;;;42.50;4.70;;;9.10;99.90;;;;;;5077272;28;20013;-74
2022/01/18 11:05:00;;;;;;;39.50;5.22;;;9.10;99.90;;;;;;5059474;28;20028;-75
2022/01/18 11:07:28;;;;;;;36.92;4.93;;;9.00;99.90;;;;;;5077217;28;20017;-75
2022/01/18 11:10:00;;;;;;;36.55;5.20;;;9.10;99.90;;;;;;5076994;28;20048;-75
2022/01/18 11:12:28;;;;;;;30.92;4.38;;;9.00;99.90;;;;;;5079086;28;20036;-75
2022/01/18 11:15:04;;;;;;;40.95;4.50;;;9.10;99.90;;;;;;5078856;28;20070;-74
2022/01/18 11:17:38;;;;;;;28.77;5.00;;;9.10;99.90;;;;;;5059637;28;20028;-75
2022/01/18 11:20:05;;;;;;;36.50;10.23;;;9.10;99.90;;;;;;5077280;28;20030;-75
2022/01/18 11:22:31;;;;;;;26.30;4.90;;;9.10;99.90;;;;;;5085272;28;20031;-78
2022/01/18 11:24:59;;;;;;;26.05;3.80;;;9.10;99.90;;;;;;5079263;28;20464;-74
2022/01/18 11:27:28;;;;;;;26.95;4.60;;;9.10;99.90;;;;;;5074254;28;20482;-75
2022/01/18 11:29:54;;;;;;;33.15;4.45;;;9.10;99.90;;;;;;5072162;28;20111;-74
2022/01/18 11:32:23;;;;;;;22.73;3.60;;;9.20;99.90;;;;;;5072576;28;20056;-75
2022/01/18 11:35:07;;;;;;;25.75;3.78;;;9.20;99.90;;;;;;5072610;28;20021;-74
2022/01/18 11:37:54;;;;;;;22.80;3.45;;;9.20;99.90;;;;;;5072648;28;20035;-75
2022/01/18 11:40:20;;;;;;;22.92;3.25;;;9.20;99.90;;;;;;5072724;28;20099;-74
2022/01/18 11:42:51;;;;;;;24.42;2.63;;;9.20;99.90;;;;;;5073311;28;20056;-75
2022/01/18 11:45:25;;;;;;;18.20;2.88;;;9.20;99.90;;;;;;5072551;28;20064;-75
2022/01/18 11:48:06;;;;;;;22.85;3.28;;;9.20;99.90;;;;;;5075079;28;20025;-75
2022/01/18 11:50:38;;;;;;;21.42;3.83;;;9.20;99.90;;;;;;5054673;28;20473;-75
2022/01/18 11:53:25;;;;;;;23.83;3.55;;;9.30;99.90;;;;;;5073011;28;20021;-75
2022/01/18 11:55:59;;;;;;;23.52;3.45;;;9.20;99.90;;;;;;5072281;28;20029;-75
2022/01/18 11:58:26;;;;;;;16.20;3.13;;;9.00;99.90;;;;;;5073552;28;20227;-75
2022/01/18 12:00:59;;;;;;;21.02;3.00;;;9.00;99.90;;;;;;5076788;28;20033;-76
2022/01/18 12:03:29;;;;;;;28.23;3.60;;;9.00;99.90;;;;;;5077230;28;20035;-77
2022/01/18 12:06:00;;;;;;;13.88;2.38;;;9.00;99.90;;;;;;5058107;28;20031;-74
2022/01/18 12:08:33;;;;;;;17.92;2.83;;;9.10;99.90;;;;;;5076476;28;20029;-75
2022/01/18 12:11:00;;;;;;;16.23;2.60;;;9.00;99.90;;;;;;5078064;28;20063;-76
2022/01/18 12:13:32;;;;;;;17.40;2.70;;;9.00;99.90;;;;;;5078306;28;20489;-74
2022/01/18 12:16:02;;;;;;;17.67;2.72;;;9.00;99.90;;;;;;5080470;28;20020;-75
2022/01/18 12:18:30;;;;;;;24.92;3.47;;;9.00;99.90;;;;;;5079402;28;20021;-77
2022/01/18 12:21:00;;;;;;;16.92;3.03;;;9.00;99.90;;;;;;5058236;28;20020;-76
2022/01/18 12:23:26;;;;;;;16.92;2.28;;;8.90;99.90;;;;;;5076146;28;20020;-76
2022/01/18 12:26:01;;;;;;;10.13;2.80;;;8.90;99.90;;;;;;5076189;28;20043;-75
2022/01/18 12:34:30;;;;;;;20.08;2.78;;;9.00;99.90;;;;;;5077499;28;20082;-75
2022/01/18 12:37:08;;;;;;;13.30;2.20;;;8.90;99.90;;;;;;5079338;28;20470;-75
2022/01/18 12:40:05;;;;;;;16.65;2.60;;;8.90;99.90;;;;;;5080807;28;20021;-74
2022/01/18 12:45:22;;;;;;;14.38;3.33;;;8.90;99.90;;;;;;5077178;28;20026;-77
2022/01/18 12:48:02;;;;;;;17.15;3.38;;;8.90;99.90;;;;;;5077600;28;20519;-76
2022/01/18 12:50:34;;;;;;;18.85;3.53;;;8.90;99.90;;;;;;5061018;28;20489;-78
2022/01/18 12:53:05;;;;;;;14.57;3.30;;;8.80;99.90;;;;;;5068151;28;20031;-74
2022/01/18 12:55:42;;;;;;;18.45;3.22;;;8.80;99.90;;;;;;5079390;28;20051;-74
2022/01/18 12:58:07;;;;;;;15.10;2.70;;;8.60;99.90;;;;;;5078358;28;20031;-75
2022/01/18 13:00:57;;;;;;;21.27;3.42;;;8.70;99.90;;;;;;5076470;28;20055;-75
2022/01/18 13:03:27;;;;;;;21.23;4.05;;;8.60;99.90;;;;;;5058810;28;20021;-77
2022/01/18 13:05:56;;;;;;;19.10;3.13;;;8.60;99.90;;;;;;5058806;28;20098;-76
2022/01/18 13:08:29;;;;;;;14.07;2.63;;;8.60;99.90;;;;;;5058074;28;20342;-75
2022/01/18 13:10:55;;;;;;;30.08;3.17;;;8.50;99.90;;;;;;5075605;28;20016;-75
2022/01/18 13:13:29;;;;;;;16.02;2.90;;;8.50;99.90;;;;;;5077540;28;20084;-76
2022/01/18 13:24:07;;;;;;;;;;;8.50;99.90;;;;;;5075435;28;20621;-75
2022/01/18 13:26:37;;;;;;;7.28;1.90;;;8.50;99.90;;;;;;5075034;28;20253;-75
2022/01/18 13:29:22;;;;;;;10.52;1.90;;;8.40;99.90;;;;;;5075467;28;20032;-76
2022/01/18 13:32:19;;;;;;;10.00;2.28;;;8.40;99.90;;;;;;5059170;28;20020;-75
2022/01/18 13:34:48;;;;;;;10.55;2.70;;;8.40;99.90;;;;;;5076943;28;20035;-75
2022/01/18 13:37:16;;;;;;;11.65;2.53;;;8.40;99.90;;;;;;5077719;28;20024;-75
2022/01/18 13:39:56;;;;;;;6.93;2.25;;;8.40;99.90;;;;;;5058690;28;20029;-74
2022/01/18 13:42:30;;;;;;;9.43;2.50;;;8.30;99.90;;;;;;5074751;28;20024;-76
2022/01/18 13:45:20;;;;;;;12.70;3.85;;;8.40;99.90;;;;;;5075876;28;20405;-76
2022/01/18 13:48:00;;;;;;;6.55;2.58;;;8.40;99.90;;;;;;5073981;28;20024;-76
2022/01/18 13:50:46;;;;;;;10.05;2.67;;;8.40;99.90;;;;;;5056104;28;20031;-75
2022/01/18 13:53:17;;;;;;;13.63;2.75;;;8.40;99.90;;;;;;5074099;28;20032;-76
2022/01/18 13:55:48;;;;;;;8.50;2.75;;;8.40;99.90;;;;;;5074809;28;20108;-77
2022/01/18 13:58:19;;;;;;;9.38;2.78;;;8.40;99.90;;;;;;5076498;28;20033;-75
2022/01/18 14:00:45;;;;;;;7.95;2.28;;;8.30;99.90;;;;;;5078883;28;20520;-76
2022/01/18 14:03:26;;;;;;;11.70;2.72;;;8.30;99.90;;;;;;5079219;28;20091;-75
2022/01/18 14:05:53;;;;;;;7.57;2.35;;;8.30;99.90;;;;;;5077445;28;20385;-76
2022/01/18 14:08:19;;;;;;;6.10;2.83;;;8.30;99.90;;;;;;5080298;28;20083;-76
2022/01/18 14:10:44;;;;;;;9.40;2.15;;;8.20;99.90;;;;;;5084041;28;20032;-75
2022/01/18 14:13:27;;;;;;;11.40;2.60;;;8.20;99.90;;;;;;5079559;28;20020;-74
2022/01/18 14:15:53;;;;;;;11.45;2.35;;;8.30;99.90;;;;;;5081238;28;20020;-75
2022/01/18 14:18:18;;;;;;;12.80;2.53;;;8.20;99.90;;;;;;5078679;28;20092;-75
2022/01/18 14:20:44;;;;;;;6.03;2.58;;;8.20;99.90;;;;;;5076575;28;20035;-75
2022/01/18 14:23:20;;;;;;;5.75;2.50;;;8.20;99.90;;;;;;5076025;28;20032;-74
2022/01/18 14:25:48;;;;;;;9.68;2.80;;;8.20;99.90;;;;;;5080282;28;20074;-75
2022/01/18 14:28:16;;;;;;;7.00;2.72;;;8.20;99.90;;;;;;5077654;28;20020;-75